Data for 10/26/2007

Time Sea-Level Adjusted Pressure Absolute Pressure Temperature Relative Humidity Dew Point   
(mb) (inHg) (mb) (inHg) (C) (F) (%) (C) (F)
00:05 1024 30.24 854 25.22 2.3 36.1 80 -0.8 30.6
00:10 1024 30.24 854 25.22 2.4 36.3 81 -0.5 31.1
00:15 1025 30.27 854 25.22 2 35.6 83 -0.5 31.1
00:20 1025 30.27 854 25.22 1.9 35.4 83 -0.7 30.8
00:25 1025 30.27 854 25.22 1.9 35.5 84 -0.6 31
00:30 1025 30.27 854 25.22 2.2 35.9 82 -0.6 30.9
00:35 1025 30.27 854 25.22 2.2 36 83 -0.4 31.3
00:40 1025 30.27 854 25.22 2 35.7 85 -0.2 31.7
00:45 1025 30.27 854 25.22 1.9 35.5 86 -0.2 31.6
00:50 1025 30.27 854 25.22 1.7 35.1 87 -0.3 31.5
00:55 1025 30.27 854 25.22 1.7 35.1 87 -0.2 31.7
01:00 1025 30.27 854 25.22 1.7 35 87 -0.2 31.6
01:05 1025 30.27 854 25.22 1.8 35.2 86 -0.3 31.5
01:10 1025 30.27 854 25.22 1.7 35.1 86 -0.4 31.3
01:15 1025 30.27 854 25.22 1.7 35.1 86 -0.4 31.3
01:20 1025 30.27 854 25.22 1.8 35.3 86 -0.2 31.6
01:25 1025 30.27 854 25.22 1.7 35.1 87 -0.2 31.7
01:30 1025 30.27 854 25.22 1.6 34.9 88 -0.1 31.9
01:35 1025 30.27 854 25.22 1.6 34.8 90 0.1 32.1
01:40 1025 30.27 855 25.25 1.7 35 90 0.1 32.3
01:45 1025 30.27 854 25.22 1.8 35.2 90 0.3 32.5
01:50 1025 30.27 854 25.22 1.8 35.2 89 0.2 32.4
01:55 1025 30.27 854 25.22 1.5 34.7 91 0.2 32.4
02:00 1025 30.27 855 25.25 1.5 34.6 92 0.3 32.5
02:05 1025 30.27 855 25.25 1.6 34.9 92 0.4 32.7
02:10 1025 30.27 855 25.25 1.6 34.8 92 0.5 32.8
02:15 1025 30.27 855 25.25 1.5 34.8 92 0.3 32.6
02:20 1025 30.27 855 25.25 1.6 34.9 93 0.5 32.9
02:25 1026 30.3 855 25.25 1.7 35 91 0.3 32.6
02:30 1026 30.3 855 25.25 1.4 34.5 94 0.5 32.8
02:35 1026 30.3 855 25.25 1.3 34.4 93 0.4 32.7
02:40 1026 30.3 855 25.25 1.4 34.5 93 0.4 32.7
02:45 1026 30.3 855 25.25 1.4 34.5 93 0.4 32.7
02:50 1026 30.3 855 25.25 1.4 34.4 93 0.4 32.7
02:55 1026 30.3 855 25.25 1.3 34.4 93 0.3 32.5
03:00 1026 30.3 855 25.25 1.3 34.4 93 0.3 32.5
03:05 1026 30.3 855 25.25 1.3 34.3 93 0.3 32.6
03:10 1026 30.3 855 25.25 1.4 34.4 93 0.4 32.7
03:15 1026 30.3 855 25.25 1.4 34.5 93 0.3 32.6
03:20 1026 30.3 855 25.25 1.2 34.1 95 0.4 32.7
03:25 1026 30.3 855 25.25 1.2 34.2 93 0.3 32.5
03:30 1026 30.3 855 25.25 1.1 34 95 0.3 32.6
03:35 1026 30.3 855 25.25 1.2 34.1 95 0.4 32.8
03:40 1026 30.3 855 25.25 1.5 34.6 93 0.5 32.9
03:45 1026 30.3 855 25.25 1.2 34.2 95 0.5 32.9
03:50 1026 30.3 855 25.25 1.2 34.2 95 0.6 33
03:55 1026 30.3 855 25.25 1.4 34.6 93 0.5 32.8
04:00 1026 30.3 855 25.25 1.4 34.6 94 0.5 32.9
04:05 1026 30.3 855 25.25 1.3 34.3 94 0.4 32.7
04:10 1026 30.3 855 25.25 1.2 34.1 94 0.3 32.5
04:15 1026 30.3 855 25.25 1 33.9 95 0.3 32.5
04:20 1026 30.3 855 25.25 1.2 34.2 93 0.2 32.4
04:25 1026 30.3 855 25.25 1.1 34 94 0.3 32.5
04:30 1026 30.3 855 25.25 0.9 33.6 95 0.2 32.4
04:35 1026 30.3 855 25.25 0.8 33.4 95 0.1 32.1
04:40 1026 30.3 856 25.28 1 33.8 95 0.2 32.4
04:45 1026 30.3 856 25.28 0.9 33.7 95 0.2 32.4
04:50 1026 30.3 856 25.28 0.8 33.5 96 0.2 32.4
04:55 1026 30.3 856 25.28 1 33.7 94 0.1 32.1
05:00 1027 30.33 856 25.28 1 33.8 94 0.1 32.2
05:05 1027 30.33 856 25.28 1 33.8 94 0.1 32.2
05:10 1027 30.33 856 25.28 0.9 33.6 95 0.1 32.2
05:15 1027 30.33 856 25.28 0.8 33.5 95 0.1 32.2
05:20 1027 30.33 856 25.28 0.6 33.1 95 -0.1 31.9
05:25 1027 30.33 856 25.28 0.6 33.1 96 0 32
05:30 1027 30.33 856 25.28 0.7 33.3 95 -0.1 31.9
05:35 1027 30.33 856 25.28 0.6 33.1 95 -0.2 31.7
05:40 1027 30.33 856 25.28 0.5 32.8 96 -0.2 31.7
05:45 1027 30.33 856 25.28 0.5 32.9 96 -0.1 31.8
05:50 1027 30.33 856 25.28 0.5 32.8 95 -0.2 31.7
05:55 1027 30.33 856 25.28 0.5 32.8 96 -0.1 31.8
06:00 1027 30.33 856 25.28 0.4 32.8 96 -0.1 31.7
06:05 1027 30.33 856 25.28 0.4 32.7 96 -0.2 31.7
06:10 1027 30.33 856 25.28 0.3 32.5 97 -0.2 31.6
06:15 1027 30.33 856 25.28 0.1 32.2 98 -0.2 31.6
06:20 1027 30.33 856 25.28 0 32 98 -0.3 31.4
06:25 1027 30.33 856 25.28 -0 32 98 -0.3 31.5
06:30 1027 30.33 856 25.28 -0 31.9 98 -0.4 31.4
06:35 1027 30.33 856 25.28 -0 31.9 98 -0.3 31.4
06:40 1027 30.33 856 25.28 -0 32 98 -0.4 31.3
06:45 1027 30.33 856 25.28 -0 31.9 97 -0.4 31.3
06:50 1027 30.33 856 25.28 -0.1 31.9 98 -0.4 31.3
06:55 1027 30.33 856 25.28 -0 31.9 98 -0.4 31.3
07:00 1027 30.33 856 25.28 -0 32 98 -0.4 31.3
07:05 1027 30.33 856 25.28 0 32 97 -0.4 31.3
07:10 1027 30.33 856 25.28 -0 32 97 -0.4 31.3
07:15 1027 30.33 856 25.28 -0 32 98 -0.3 31.4
07:20 1027 30.33 856 25.28 0 32.1 98 -0.2 31.6
07:25 1027 30.33 856 25.28 0.1 32.2 98 -0.2 31.6
07:30 1027 30.33 857 25.31 0.2 32.3 98 -0.1 31.7
07:35 1027 30.33 857 25.31 0.2 32.4 97 -0.2 31.6
07:40 1027 30.33 857 25.31 0.2 32.4 97 -0.1 31.7
07:45 1027 30.33 857 25.31 0.3 32.6 97 -0.1 31.8
07:50 1027 30.33 857 25.31 0.3 32.5 97 -0.2 31.7
07:55 1027 30.33 857 25.31 0.2 32.4 97 -0.2 31.6
08:00 1027 30.33 857 25.31 0.2 32.3 97 -0.3 31.5
08:05 1028 30.36 857 25.31 0.1 32.2 98 -0.2 31.6
08:10 1028 30.36 857 25.31 0.1 32.1 98 -0.2 31.6
08:15 1028 30.36 857 25.31 0.1 32.2 97 -0.2 31.6
08:20 1028 30.36 857 25.31 0.1 32.1 98 -0.2 31.6
08:25 1028 30.36 857 25.31 0.2 32.3 98 -0.1 31.8
08:30 1028 30.36 857 25.31 0.4 32.7 97 0 32
08:35 1028 30.36 857 25.31 0.6 33 96 0 32
08:40 1028 30.36 857 25.31 0.3 32.6 97 -0.1 31.8
08:45 1028 30.36 857 25.31 0.2 32.4 97 -0.3 31.5
08:50 1028 30.36 857 25.31 0.2 32.4 97 -0.2 31.7
08:55 1028 30.36 857 25.31 0.4 32.8 96 -0.1 31.9
09:00 1028 30.36 857 25.31 0.6 33 95 -0.1 31.9
09:05 1028 30.36 857 25.31 0.6 33.1 95 -0 31.9
09:10 1028 30.36 857 25.31 0.8 33.4 94 -0 31.9
09:15 1028 30.36 857 25.31 0.9 33.6 94 0.1 32.1
09:20 1028 30.36 857 25.31 0.9 33.6 94 -0 32
09:25 1028 30.36 857 25.31 1 33.8 93 -0 32
09:30 1028 30.36 857 25.31 1 33.8 94 0.1 32.2
09:35 1028 30.36 857 25.31 1 33.8 94 0.1 32.2
09:40 1028 30.36 857 25.31 1 33.9 94 0.1 32.2
09:45 1028 30.36 857 25.31 1 33.8 94 0.1 32.1
09:50 1028 30.36 858 25.34 1 33.8 92 -0.1 31.7
09:55 1028 30.36 858 25.34 0.7 33.2 95 -0.1 31.8
10:00 1028 30.36 857 25.31 0.3 32.6 96 -0.3 31.4
10:05 1028 30.36 857 25.31 0.2 32.4 95 -0.4 31.3
10:10 1028 30.36 858 25.34 0.3 32.5 96 -0.3 31.4
10:15 1028 30.36 858 25.34 0.4 32.8 96 -0.2 31.6
10:20 1028 30.36 858 25.34 0.4 32.8 96 -0.1 31.8
10:25 1028 30.36 858 25.34 0.5 32.9 95 -0.2 31.7
10:30 1028 30.36 858 25.34 0.5 32.9 96 -0.1 31.8
10:35 1028 30.36 858 25.34 0.5 33 95 -0.1 31.8
10:40 1028 30.36 858 25.34 0.6 33 96 -0.1 31.9
10:45 1028 30.36 858 25.34 0.8 33.4 96 0.2 32.3
10:50 1029 30.39 858 25.34 0.9 33.7 94 0 32.1
10:55 1028 30.36 858 25.34 0.9 33.6 94 0.1 32.2
11:00 1028 30.36 858 25.34 0.9 33.6 94 0 32.1
11:05 1028 30.36 858 25.34 0.9 33.7 94 0.1 32.2
11:10 1029 30.39 858 25.34 1 33.8 93 -0 31.9
11:15 1029 30.39 858 25.34 1.1 33.9 93 0.1 32.1
11:20 1029 30.39 858 25.34 1.3 34.4 93 0.3 32.6
11:25 1029 30.39 858 25.34 1.6 34.9 90 0.1 32.2
11:30 1029 30.39 858 25.34 1.8 35.3 91 0.5 33
11:35 1029 30.39 858 25.34 1.9 35.5 88 0.2 32.3
11:40 1029 30.39 858 25.34 1.9 35.4 89 0.2 32.4
11:45 1029 30.39 858 25.34 2 35.7 87 0.1 32.2
11:50 1029 30.39 858 25.34 2.2 36 85 -0.1 31.8
11:55 1029 30.39 858 25.34 2.1 35.8 84 -0.4 31.3
12:00 1029 30.39 858 25.34 1.9 35.4 87 -0.1 31.9
12:05 1029 30.39 858 25.34 2.2 35.9 86 0.1 32.2
12:10 1029 30.39 858 25.34 2.2 36 87 0.2 32.4
12:15 1029 30.39 858 25.34 2.4 36.3 86 0.3 32.5
12:20 1029 30.39 858 25.34 2.6 36.7 86 0.6 33
12:25 1029 30.39 858 25.34 2.8 37 80 -0.4 31.4
12:30 1029 30.39 858 25.34 2.5 36.5 83 -0.1 31.8
12:35 1029 30.39 858 25.34 2.4 36.4 84 -0 32
12:40 1029 30.39 858 25.34 2 35.6 85 -0.2 31.6
12:45 1029 30.39 858 25.34 1.8 35.3 86 -0.3 31.5
12:50 1029 30.39 858 25.34 2.1 35.7 86 -0.1 31.9
12:55 1029 30.39 858 25.34 2.3 36.2 86 0.3 32.5
13:00 1029 30.39 858 25.34 2.5 36.5 84 0.2 32.3
13:05 1029 30.39 858 25.34 2.7 36.8 84 0.2 32.3
13:10 1029 30.39 858 25.34 2.9 37.1 81 -0.1 31.9
13:15 1029 30.39 858 25.34 2.6 36.7 82 -0.1 31.8
13:20 1029 30.39 858 25.34 2.3 36.1 82 -0.5 31.1
13:25 1029 30.39 858 25.34 2.5 36.5 80 -0.6 30.9
13:30 1029 30.39 858 25.34 2.5 36.5 80 -0.6 30.9
13:35 1029 30.39 858 25.34 2.8 37 79 -0.5 31.2
13:40 1029 30.39 858 25.34 2.9 37.2 81 -0.1 31.8
13:45 1029 30.39 858 25.34 3 37.3 81 0 32
13:50 1029 30.39 858 25.34 3.1 37.7 80 -0 32
13:55 1029 30.39 858 25.34 3.5 38.2 78 -0.1 31.8
14:00 1029 30.39 858 25.34 3.8 38.9 75 -0.3 31.5
14:05 1029 30.39 858 25.34 4.3 39.8 74 0 32.1
14:10 1029 30.39 858 25.34 5 41 69 -0.3 31.5
14:15 1029 30.39 858 25.34 5.2 41.3 68 -0.1 31.7
14:20 1029 30.39 858 25.34 4.8 40.6 71 -0.1 31.9
14:25 1029 30.39 858 25.34 5 40.9 69 -0.2 31.6
14:30 1029 30.39 858 25.34 5 40.9 67 -0.6 30.9
14:35 1029 30.39 858 25.34 5.2 41.4 66 -0.5 31.1
14:40 1029 30.39 858 25.34 4.8 40.7 70 -0.1 31.8
14:45 1028 30.36 858 25.34 5.2 41.3 68 -0.3 31.5
14:50 1028 30.36 858 25.34 5.5 41.9 66 -0.2 31.6
14:55 1028 30.36 858 25.34 5.7 42.2 66 -0.2 31.7
15:00 1028 30.36 858 25.34 4.8 40.7 69 -0.4 31.4
15:05 1028 30.36 858 25.34 4.6 40.3 68 -0.8 30.6
15:10 1028 30.36 857 25.31 5 41.1 68 -0.5 31.2
15:15 1028 30.36 857 25.31 5.7 42.2 64 -0.6 30.9
15:20 1028 30.36 857 25.31 6.4 43.5 63 -0.2 31.7
15:25 1028 30.36 857 25.31 6.7 44.1 60 -0.6 31
15:30 1028 30.36 857 25.31 6.9 44.5 60 -0.3 31.4
15:35 1028 30.36 857 25.31 6.2 43.2 63 -0.3 31.5
15:40 1028 30.36 857 25.31 5.8 42.5 62 -0.9 30.3
15:45 1028 30.36 857 25.31 5.9 42.6 60 -1.2 29.9
15:50 1028 30.36 857 25.31 6.3 43.3 60 -1 30.2
15:55 1028 30.36 857 25.31 5.8 42.5 62 -1 30.3
16:00 1028 30.36 857 25.31 5.5 41.9 64 -0.7 30.8
16:05 1028 30.36 857 25.31 4.9 40.7 65 -1.2 29.8
16:10 1028 30.36 857 25.31 4.9 40.8 66 -0.9 30.3
16:15 1028 30.36 857 25.31 5 41 63 -1.5 29.3
16:20 1028 30.36 857 25.31 5.4 41.8 62 -1.2 29.9
16:25 1028 30.36 857 25.31 5 41 67 -0.6 30.9
16:30 1028 30.36 857 25.31 4.7 40.4 69 -0.5 31.1
16:35 1028 30.36 857 25.31 4.2 39.6 71 -0.5 31.2
16:40 1028 30.36 857 25.31 4.3 39.7 71 -0.6 30.9
16:45 1028 30.36 857 25.31 4.9 40.9 66 -0.8 30.5
16:50 1028 30.36 857 25.31 5.2 41.4 66 -0.5 31
16:55 1028 30.36 857 25.31 5.2 41.3 67 -0.4 31.3
17:00 1028 30.36 857 25.31 5.1 41.1 68 -0.3 31.5
17:05 1028 30.36 857 25.31 4.5 40 69 -0.6 30.8
17:10 1028 30.36 857 25.31 3.9 39.1 72 -0.7 30.7
17:15 1028 30.36 857 25.31 4.2 39.5 71 -0.7 30.8
17:20 1028 30.36 858 25.34 4.6 40.3 69 -0.5 31
17:25 1028 30.36 858 25.34 4.4 40 71 -0.3 31.4
17:30 1028 30.36 858 25.34 3.9 39 73 -0.5 31.1
17:35 1028 30.36 858 25.34 3.6 38.5 74 -0.5 31.1
17:40 1028 30.36 858 25.34 3.5 38.2 75 -0.6 31
17:45 1029 30.39 858 25.34 3.3 37.9 76 -0.6 30.9
17:50 1029 30.39 858 25.34 3.2 37.8 76 -0.6 30.9
17:55 1029 30.39 858 25.34 3.4 38 75 -0.7 30.7
18:00 1029 30.39 858 25.34 3.5 38.3 75 -0.6 31
18:05 1029 30.39 858 25.34 3.5 38.2 74 -0.7 30.8
18:10 1029 30.39 858 25.34 3.4 38.2 75 -0.6 31
18:15 1029 30.39 858 25.34 3.4 38.2 75 -0.5 31
18:20 1029 30.39 858 25.34 3.4 38.1 75 -0.6 31
18:25 1029 30.39 858 25.34 3.1 37.6 77 -0.5 31.1
18:30 1029 30.39 858 25.34 3 37.4 78 -0.5 31.1
18:35 1029 30.39 858 25.34 3 37.4 77 -0.6 31
18:40 1029 30.39 858 25.34 3 37.4 77 -0.6 30.9
18:45 1029 30.39 858 25.34 2.9 37.2 78 -0.7 30.8
18:50 1029 30.39 858 25.34 2.7 36.9 78 -0.7 30.7
18:55 1029 30.39 858 25.34 2.6 36.7 79 -0.7 30.8
19:00 1029 30.39 858 25.34 2.4 36.3 81 -0.6 31
19:05 1029 30.39 858 25.34 2.3 36.2 81 -0.7 30.8
19:10 1029 30.39 858 25.34 2.2 36 82 -0.6 31
19:15 1029 30.39 858 25.34 2.1 35.8 82 -0.7 30.8
19:20 1029 30.39 858 25.34 1.9 35.5 83 -0.7 30.8
19:25 1029 30.39 859 25.37 1.7 35.1 85 -0.4 31.2
19:30 1029 30.39 859 25.37 1.4 34.5 87 -0.5 31.1
19:35 1029 30.39 859 25.37 1.2 34.1 88 -0.7 30.8
19:40 1029 30.39 859 25.37 1.1 33.9 88 -0.7 30.7
19:45 1029 30.39 859 25.37 1.1 33.9 87 -0.8 30.5
19:50 1029 30.39 859 25.37 1 33.8 88 -0.8 30.5
19:55 1029 30.39 859 25.37 0.7 33.2 88 -1.1 30.1
20:00 1029 30.39 859 25.37 0.6 33.1 88 -1.2 29.9
20:05 1029 30.39 859 25.37 0.3 32.6 89 -1.3 29.6
20:10 1029 30.39 859 25.37 -0 31.9 90 -1.5 29.3
20:15 1029 30.39 859 25.37 -0.3 31.5 91 -1.6 29.2
20:20 1029 30.39 859 25.37 -0.2 31.7 90 -1.7 29
20:25 1029 30.39 859 25.37 -0.2 31.7 90 -1.6 29.1
20:30 1029 30.39 859 25.37 -0.2 31.6 90 -1.7 28.9
20:35 1029 30.39 859 25.37 -0.3 31.5 90 -1.8 28.8
20:40 1029 30.39 859 25.37 -0.3 31.4 90 -1.7 28.9
20:45 1029 30.39 859 25.37 -0.2 31.6 89 -1.8 28.8
20:50 1030 30.42 859 25.37 -0.3 31.5 90 -1.8 28.8
20:55 1029 30.39 859 25.37 -0.3 31.5 90 -1.7 28.9
21:00 1030 30.42 859 25.37 -0.1 31.7 89 -1.7 28.9
21:05 1030 30.42 859 25.37 -0.1 31.7 90 -1.6 29
21:10 1030 30.42 859 25.37 -0.3 31.5 90 -1.8 28.8
21:15 1030 30.42 859 25.37 -0.3 31.4 90 -1.8 28.8
21:20 1030 30.42 859 25.37 -0.3 31.4 90 -1.8 28.8
21:25 1030 30.42 859 25.37 -0.3 31.4 90 -1.8 28.7
21:30 1030 30.42 859 25.37 -0.2 31.6 89 -1.8 28.8
21:35 1030 30.42 859 25.37 -0.1 31.8 89 -1.8 28.8
21:40 1030 30.42 859 25.37 -0.1 31.8 89 -1.7 28.9
21:45 1030 30.42 859 25.37 -0.1 31.8 88 -1.9 28.7
21:50 1030 30.42 859 25.37 -0.2 31.6 88 -1.9 28.6
21:55 1030 30.42 859 25.37 -0.2 31.7 87 -2 28.4
22:00 1030 30.42 859 25.37 -0.2 31.7 87 -2 28.4
22:05 1030 30.42 859 25.37 -0.2 31.6 87 -2.2 28
22:10 1030 30.42 859 25.37 -0.4 31.3 87 -2.3 27.8
22:15 1030 30.42 859 25.37 -0.6 31 88 -2.4 27.8
22:20 1030 30.42 859 25.37 -0.7 30.7 88 -2.5 27.5
22:25 1030 30.42 859 25.37 -0.7 30.7 89 -2.3 27.8
22:30 1030 30.42 859 25.37 -0.6 31 88 -2.3 27.9
22:35 1030 30.42 859 25.37 -0.6 31 88 -2.4 27.8
22:40 1030 30.42 859 25.37 -0.6 30.9 88 -2.4 27.6
22:45 1030 30.42 859 25.37 -0.4 31.4 86 -2.4 27.7
22:50 1030 30.42 859 25.37 -0.4 31.2 87 -2.4 27.7
22:55 1030 30.42 859 25.37 -0.4 31.2 86 -2.5 27.5
23:00 1030 30.42 859 25.37 -0.5 31.1 86 -2.5 27.5
23:05 1030 30.42 859 25.37 -0.5 31.2 86 -2.6 27.4
23:10 1030 30.42 859 25.37 -0.4 31.2 86 -2.5 27.4
23:15 1030 30.42 859 25.37 -0.3 31.5 84 -2.6 27.3
23:20 1030 30.42 859 25.37 -0.3 31.5 84 -2.6 27.3
23:25 1030 30.42 859 25.37 -0.4 31.4 85 -2.6 27.3
23:30 1030 30.42 859 25.37 -0.5 31 85 -2.7 27.1
23:35 1030 30.42 859 25.37 -0.6 30.9 85 -2.7 27.1
23:40 1030 30.42 859 25.37 -0.7 30.7 85 -2.9 26.9
23:45 1030 30.42 859 25.37 -0.9 30.4 86 -2.9 26.7
23:50 1030 30.42 859 25.37 -1 30.2 86 -3 26.5
23:55 1030 30.42 859 25.37 -1.2 29.9 87 -3 26.5
24:00 1030 30.42 859 25.37 -1.4 29.5 87 -3.3 26.1